Time;durP1;ratioP1;P1;durP2;ratioP2;P2;SDS_P1;SDS_P2;PMS_P1;PMS_P2;Temp;Humidity;BMP_temperature;BMP_pressure;BME280_temperature;BME280_humidity;BME280_pressure;Samples;Min_cycle;Max_cycle;Signal;HPM_P1;HPM_P2
2023/07/27 00:00:55;;;;;;;6.63;3.13;;;18.30;99.90;;;;;;5046987;28;20041;-92
2023/07/27 00:03:21;;;;;;;5.95;3.20;;;18.30;99.90;;;;;;5022285;28;20086;-91
2023/07/27 00:05:47;;;;;;;6.47;3.72;;;18.30;99.90;;;;;;5022324;28;20072;-91
2023/07/27 00:08:12;;;;;;;7.00;3.58;;;18.30;99.80;;;;;;5022526;28;20040;-91
2023/07/27 00:10:38;;;;;;;8.35;3.75;;;18.30;99.60;;;;;;5039173;28;20457;-91
2023/07/27 00:13:05;;;;;;;8.32;3.63;;;18.30;99.70;;;;;;5021997;28;20029;-92
2023/07/27 00:15:30;;;;;;;6.45;3.67;;;18.30;99.80;;;;;;5056657;28;20114;-92
2023/07/27 00:17:56;;;;;;;8.00;3.38;;;18.30;99.80;;;;;;5022419;28;20021;-91
2023/07/27 00:20:22;;;;;;;5.82;3.42;;;18.30;99.80;;;;;;5055439;28;20033;-92
2023/07/27 00:22:48;;;;;;;6.28;3.60;;;18.30;99.90;;;;;;5022245;28;20066;-91
2023/07/27 00:25:13;;;;;;;6.63;4.05;;;18.30;99.90;;;;;;5038668;28;20025;-92
2023/07/27 00:27:39;;;;;;;6.63;3.75;;;18.30;99.80;;;;;;5022719;28;20044;-91
2023/07/27 00:30:05;;;;;;;6.70;3.90;;;18.20;99.80;;;;;;5055403;28;20021;-92
2023/07/27 00:32:31;;;;;;;5.70;3.90;;;18.20;99.60;;;;;;5021923;28;20025;-88
2023/07/27 00:34:57;;;;;;;6.28;4.20;;;18.20;99.50;;;;;;5037936;28;20474;-89
2023/07/27 00:37:22;;;;;;;5.78;3.67;;;18.20;99.40;;;;;;5037712;28;20025;-88
2023/07/27 00:39:48;;;;;;;6.43;4.07;;;18.20;99.20;;;;;;5054275;28;20071;-88
2023/07/27 00:42:14;;;;;;;7.90;4.63;;;18.20;99.10;;;;;;5036701;28;20507;-88
2023/07/27 00:44:39;;;;;;;9.73;4.63;;;18.10;99.00;;;;;;5021256;28;20367;-89
2023/07/27 00:47:06;;;;;;;7.68;4.70;;;18.10;98.90;;;;;;5021298;28;20032;-88
2023/07/27 00:49:32;;;;;;;9.73;4.97;;;18.10;99.00;;;;;;5039265;28;20082;-90
2023/07/27 00:51:58;;;;;;;8.32;4.82;;;18.10;99.00;;;;;;5023479;28;20025;-91
2023/07/27 00:54:24;;;;;;;8.15;4.72;;;18.00;99.10;;;;;;5038653;28;20017;-90
2023/07/27 00:56:52;;;;;;;6.93;4.53;;;18.00;99.40;;;;;;5038379;28;20488;-90
2023/07/27 00:59:17;;;;;;;9.38;5.10;;;18.00;99.60;;;;;;5041168;28;20041;-91
2023/07/27 01:01:51;;;;;;;8.77;5.18;;;18.00;99.70;;;;;;5041587;28;20496;-90
2023/07/27 01:04:30;;;;;;;8.57;5.38;;;18.00;99.90;;;;;;5058884;28;20029;-90
2023/07/27 01:06:56;;;;;;;8.90;5.07;;;18.00;99.90;;;;;;5041713;28;20029;-90
2023/07/27 01:09:22;;;;;;;7.85;5.47;;;18.00;99.90;;;;;;5024885;28;20496;-90
2023/07/27 01:12:01;;;;;;;10.90;5.82;;;18.00;99.90;;;;;;5041137;28;20044;-91
2023/07/27 01:15:05;;;;;;;8.23;5.55;;;18.00;99.90;;;;;;5057368;28;20536;-90
2023/07/27 01:17:40;;;;;;;10.82;5.90;;;18.00;99.90;;;;;;5014543;28;20039;-90
2023/07/27 01:20:42;;;;;;;7.30;5.07;;;18.00;99.90;;;;;;5057371;28;20028;-90
2023/07/27 01:23:13;;;;;;;9.35;5.40;;;17.90;99.90;;;;;;5058102;28;20115;-91
2023/07/27 01:26:08;;;;;;;8.77;5.57;;;17.80;99.90;;;;;;5070384;28;20044;-92
2023/07/27 01:29:06;;;;;;;8.32;5.78;;;17.80;99.90;;;;;;5033421;28;20037;-91
2023/07/27 01:31:41;;;;;;;8.00;5.50;;;17.80;99.90;;;;;;5077677;28;20005;-91
2023/07/27 01:34:31;;;;;;;9.18;5.65;;;17.80;99.90;;;;;;5070442;28;20126;-92
2023/07/27 01:37:02;;;;;;;8.35;5.35;;;17.70;99.90;;;;;;5067840;28;20020;-90
2023/07/27 01:39:31;;;;;;;9.98;5.45;;;17.70;99.90;;;;;;5074976;28;20024;-91
2023/07/27 01:41:58;;;;;;;10.43;6.10;;;17.70;99.90;;;;;;5057114;28;20103;-92
2023/07/27 01:44:26;;;;;;;8.05;5.80;;;17.70;99.90;;;;;;5074672;28;20480;-92
2023/07/27 01:46:53;;;;;;;10.43;7.18;;;17.70;99.90;;;;;;5057184;28;20059;-91
2023/07/27 01:49:20;;;;;;;9.27;5.90;;;17.60;99.90;;;;;;5024293;28;20462;-92
2023/07/27 01:51:48;;;;;;;10.23;6.40;;;17.60;99.90;;;;;;5057244;28;20017;-91
2023/07/27 01:54:15;;;;;;;8.57;5.80;;;17.60;99.90;;;;;;5040498;28;20078;-90
2023/07/27 01:56:41;;;;;;;8.48;6.00;;;17.70;99.90;;;;;;5057140;28;20052;-92
2023/07/27 01:59:08;;;;;;;8.65;5.38;;;17.60;99.90;;;;;;5040135;28;20012;-92
2023/07/27 02:01:35;;;;;;;10.73;6.30;;;17.60;99.90;;;;;;5056655;28;20028;-92
2023/07/27 02:04:01;;;;;;;11.55;6.30;;;17.60;99.90;;;;;;5056577;28;20094;-91
2023/07/27 02:06:27;;;;;;;9.20;6.45;;;17.60;99.90;;;;;;5040063;28;20028;-91
2023/07/27 02:08:53;;;;;;;10.18;6.53;;;17.60;99.90;;;;;;5040354;28;20037;-91
2023/07/27 02:11:20;;;;;;;12.32;7.13;;;17.60;99.90;;;;;;5023501;28;20032;-91
2023/07/27 02:13:57;;;;;;;12.57;7.57;;;17.60;99.90;;;;;;5039829;28;20035;-90
2023/07/27 02:16:41;;;;;;;10.20;7.03;;;17.50;99.90;;;;;;5056876;28;20108;-90
2023/07/27 02:19:08;;;;;;;10.88;7.85;;;17.50;99.90;;;;;;5056715;28;20044;-91
2023/07/27 02:21:35;;;;;;;12.98;8.65;;;17.50;99.90;;;;;;5056510;28;20024;-90
2023/07/27 02:24:01;;;;;;;12.25;8.52;;;17.50;99.90;;;;;;5056468;28;20043;-90
2023/07/27 02:26:27;;;;;;;14.15;9.15;;;17.40;99.90;;;;;;5056510;28;20491;-90
2023/07/27 02:28:56;;;;;;;10.57;7.80;;;17.40;99.90;;;;;;5039946;28;20029;-89
2023/07/27 02:31:22;;;;;;;14.55;8.68;;;17.40;99.90;;;;;;5023865;28;20035;-88
2023/07/27 02:33:47;;;;;;;12.68;8.85;;;17.30;99.90;;;;;;5022920;28;20024;-88
2023/07/27 02:36:13;;;;;;;12.32;8.55;;;17.30;99.90;;;;;;5056122;28;20028;-89
2023/07/27 02:38:39;;;;;;;13.32;8.85;;;17.30;99.90;;;;;;5039497;28;20131;-89
2023/07/27 02:41:04;;;;;;;12.45;9.27;;;17.30;99.90;;;;;;5023222;28;20067;-89
2023/07/27 02:43:30;;;;;;;17.70;10.57;;;17.30;99.90;;;;;;5058239;28;20064;-90
2023/07/27 02:45:59;;;;;;;12.90;9.20;;;17.20;99.90;;;;;;5049758;28;20043;-92
2023/07/27 02:48:26;;;;;;;12.15;9.60;;;17.20;99.90;;;;;;5040729;28;20032;-93
2023/07/27 02:50:51;;;;;;;14.55;10.05;;;17.20;99.90;;;;;;5041495;28;20036;-93
2023/07/27 02:53:17;;;;;;;15.88;9.98;;;17.20;99.90;;;;;;5057959;28;20024;-93
2023/07/27 02:56:02;;;;;;;13.32;9.70;;;17.20;99.90;;;;;;5057961;28;20374;-92
2023/07/27 02:58:28;;;;;;;13.25;9.82;;;17.10;99.90;;;;;;5057174;28;20465;-93
2023/07/27 03:00:57;;;;;;;15.15;9.93;;;17.10;99.90;;;;;;5023946;28;20106;-92
2023/07/27 03:03:22;;;;;;;14.98;9.70;;;17.10;99.90;;;;;;5056400;28;20025;-91
2023/07/27 03:05:55;;;;;;;16.65;10.90;;;17.00;99.90;;;;;;5039986;28;20052;-91
2023/07/27 03:08:20;;;;;;;18.60;10.40;;;17.00;99.90;;;;;;5060389;28;20373;-90
2023/07/27 03:10:49;;;;;;;16.42;10.75;;;17.00;99.90;;;;;;5026988;28;20025;-93
2023/07/27 03:13:15;;;;;;;13.55;10.02;;;17.00;99.90;;;;;;5029550;28;20024;-92
2023/07/27 03:15:40;;;;;;;16.08;10.95;;;17.00;99.90;;;;;;5044696;28;20036;-94
2023/07/27 03:18:07;;;;;;;20.83;12.23;;;17.00;99.90;;;;;;5033006;28;20044;-90
2023/07/27 03:20:40;;;;;;;15.73;10.30;;;17.00;99.90;;;;;;5060516;28;20017;-91
2023/07/27 03:23:06;;;;;;;16.20;11.30;;;17.00;99.90;;;;;;5028886;28;20488;-91
2023/07/27 03:25:33;;;;;;;18.02;11.25;;;17.00;99.90;;;;;;5045822;28;20025;-91
2023/07/27 03:28:00;;;;;;;16.08;11.75;;;16.90;99.90;;;;;;5060892;28;20051;-92
2023/07/27 03:30:25;;;;;;;17.75;11.77;;;16.90;99.90;;;;;;5027150;28;20075;-93
2023/07/27 03:32:51;;;;;;;19.17;11.82;;;16.90;99.90;;;;;;5042795;28;20457;-93
2023/07/27 03:35:17;;;;;;;19.08;12.85;;;16.90;99.90;;;;;;5026015;28;20020;-90
2023/07/27 03:37:42;;;;;;;14.93;11.90;;;16.90;99.90;;;;;;5042182;28;20054;-91
2023/07/27 03:40:08;;;;;;;19.05;12.90;;;16.90;99.90;;;;;;5042538;28;20024;-90
2023/07/27 03:42:34;;;;;;;17.10;12.05;;;16.90;99.90;;;;;;5042509;28;20041;-91
2023/07/27 03:45:00;;;;;;;17.70;12.23;;;16.90;99.90;;;;;;5025952;28;20028;-91
2023/07/27 03:47:25;;;;;;;18.33;13.02;;;16.80;99.90;;;;;;5059411;28;20028;-91
2023/07/27 03:49:51;;;;;;;20.27;13.90;;;16.80;99.90;;;;;;5042955;28;20040;-90
2023/07/27 03:52:17;;;;;;;23.10;14.00;;;16.80;99.90;;;;;;5026529;28;20028;-94
2023/07/27 03:54:42;;;;;;;20.98;14.82;;;16.80;99.90;;;;;;5026026;28;20119;-92
2023/07/27 03:57:08;;;;;;;19.60;13.80;;;16.80;99.90;;;;;;5042005;28;20028;-89
2023/07/27 03:59:33;;;;;;;23.38;14.95;;;16.70;99.90;;;;;;5025581;28;20023;-90
2023/07/27 04:01:59;;;;;;;25.92;15.32;;;16.70;99.90;;;;;;5025364;28;20110;-90
2023/07/27 04:04:25;;;;;;;21.85;14.48;;;16.70;99.90;;;;;;5041759;28;20024;-88
2023/07/27 04:06:51;;;;;;;19.63;14.07;;;16.60;99.90;;;;;;5025436;28;20024;-89
2023/07/27 04:09:17;;;;;;;20.85;13.32;;;16.60;99.90;;;;;;5069029;28;20050;-92
2023/07/27 04:11:43;;;;;;;17.90;12.50;;;16.60;99.90;;;;;;5059519;28;20021;-92
2023/07/27 04:14:08;;;;;;;18.98;13.13;;;16.60;99.90;;;;;;5027882;28;20112;-92
2023/07/27 04:16:34;;;;;;;20.48;11.50;;;16.60;99.90;;;;;;5043230;28;20048;-94
2023/07/27 04:19:00;;;;;;;20.02;12.30;;;16.50;99.90;;;;;;5030415;28;20021;-92
2023/07/27 04:21:25;;;;;;;15.73;12.05;;;16.50;99.90;;;;;;5027359;28;20063;-93
2023/07/27 04:23:51;;;;;;;15.80;10.95;;;16.40;99.90;;;;;;5025804;28;20048;-92
2023/07/27 04:26:16;;;;;;;18.27;12.00;;;16.40;99.90;;;;;;5025705;28;20028;-93
2023/07/27 04:28:42;;;;;;;15.48;9.95;;;16.40;99.90;;;;;;5025316;28;20457;-92
2023/07/27 04:31:08;;;;;;;15.20;9.55;;;16.40;99.90;;;;;;5041463;28;20047;-88
2023/07/27 04:33:33;;;;;;;15.73;9.88;;;16.40;99.90;;;;;;5024503;28;20024;-88
2023/07/27 04:36:03;;;;;;;17.42;11.43;;;16.30;99.90;;;;;;5024524;28;20037;-89
2023/07/27 04:38:29;;;;;;;13.80;9.55;;;16.30;99.90;;;;;;5057445;28;20351;-89
2023/07/27 04:40:55;;;;;;;14.43;10.25;;;16.30;99.90;;;;;;5058099;28;20108;-89
2023/07/27 04:43:20;;;;;;;18.08;10.07;;;16.30;99.90;;;;;;5057982;28;20125;-92
2023/07/27 04:45:46;;;;;;;16.73;10.13;;;16.30;99.90;;;;;;5024590;28;20043;-92
2023/07/27 04:48:12;;;;;;;16.23;10.30;;;16.20;99.90;;;;;;5057858;28;20035;-93
2023/07/27 04:50:37;;;;;;;11.07;8.55;;;16.30;99.90;;;;;;5024421;28;20029;-90
2023/07/27 04:53:03;;;;;;;12.95;9.65;;;16.20;99.90;;;;;;5041244;28;20030;-90
2023/07/27 04:55:29;;;;;;;13.77;9.50;;;16.20;99.90;;;;;;5057717;28;20036;-90
2023/07/27 04:57:58;;;;;;;14.63;9.40;;;16.20;99.90;;;;;;5024411;28;20021;-90
2023/07/27 05:00:23;;;;;;;13.05;9.18;;;16.20;99.90;;;;;;5069277;28;20134;-94
2023/07/27 05:02:51;;;;;;;15.23;10.35;;;16.20;99.90;;;;;;5026741;28;20091;-93
2023/07/27 05:05:17;;;;;;;16.10;9.57;;;16.20;99.90;;;;;;5053358;28;20021;-93
2023/07/27 05:07:43;;;;;;;12.82;8.73;;;16.20;99.90;;;;;;5046594;28;20019;-91
2023/07/27 05:10:08;;;;;;;11.95;9.07;;;16.20;99.90;;;;;;5062530;28;20035;-93
2023/07/27 05:12:34;;;;;;;12.90;8.90;;;16.20;99.90;;;;;;5079664;28;20084;-92
2023/07/27 05:15:00;;;;;;;12.90;8.57;;;16.10;99.90;;;;;;5053911;28;20127;-93
2023/07/27 05:17:28;;;;;;;12.52;8.38;;;16.10;99.90;;;;;;5040865;28;20024;-90
2023/07/27 05:19:54;;;;;;;15.23;8.60;;;16.10;99.90;;;;;;5040562;28;20098;-90
2023/07/27 05:22:20;;;;;;;13.30;8.25;;;16.10;99.90;;;;;;5057339;28;20024;-90
2023/07/27 05:24:46;;;;;;;10.55;7.57;;;16.10;99.90;;;;;;5024143;28;20082;-90
2023/07/27 05:27:14;;;;;;;13.20;8.00;;;16.10;99.90;;;;;;5023881;28;20107;-90
2023/07/27 05:29:41;;;;;;;10.38;7.95;;;16.10;99.90;;;;;;5039711;28;20025;-90
2023/07/27 05:32:08;;;;;;;13.63;7.40;;;16.10;99.90;;;;;;5024617;28;20033;-91
2023/07/27 05:34:34;;;;;;;9.98;6.72;;;16.10;99.90;;;;;;5056925;28;20523;-89
2023/07/27 05:37:00;;;;;;;11.10;7.20;;;16.10;99.90;;;;;;5040214;28;20067;-89
2023/07/27 05:39:27;;;;;;;11.98;6.10;;;16.10;99.90;;;;;;5039953;28;20032;-89
2023/07/27 05:41:53;;;;;;;8.10;6.03;;;16.00;99.90;;;;;;5040219;28;20036;-89
2023/07/27 05:44:21;;;;;;;11.02;6.57;;;16.00;99.90;;;;;;5040044;28;20025;-88
2023/07/27 05:46:51;;;;;;;10.52;6.75;;;16.00;99.90;;;;;;5039614;28;20079;-88
2023/07/27 05:49:17;;;;;;;10.00;6.55;;;15.90;99.90;;;;;;5057123;28;20020;-94
2023/07/27 05:51:42;;;;;;;9.63;6.47;;;15.90;99.90;;;;;;5057505;28;20065;-93
2023/07/27 05:54:08;;;;;;;11.27;7.47;;;15.90;99.90;;;;;;5024036;28;20373;-93
2023/07/27 05:56:34;;;;;;;12.18;6.90;;;15.90;99.90;;;;;;5024364;28;20396;-94
2023/07/27 05:58:59;;;;;;;11.00;6.45;;;15.90;99.90;;;;;;5042621;28;20028;-92
2023/07/27 06:01:25;;;;;;;8.70;6.07;;;15.90;99.90;;;;;;5034970;28;20121;-92
2023/07/27 06:03:51;;;;;;;9.13;6.28;;;15.90;99.90;;;;;;5002659;28;20398;-94
2023/07/27 06:06:16;;;;;;;9.82;6.00;;;15.90;99.90;;;;;;5001662;28;20371;-89
2023/07/27 06:08:42;;;;;;;9.27;6.00;;;15.90;99.90;;;;;;5000308;28;20030;-89
2023/07/27 06:11:09;;;;;;;11.05;6.10;;;15.90;99.90;;;;;;5000313;28;20021;-89
2023/07/27 06:13:35;;;;;;;10.35;5.75;;;15.90;99.90;;;;;;5016571;28;20049;-89
2023/07/27 06:16:02;;;;;;;10.85;6.63;;;15.90;99.90;;;;;;5032640;28;20117;-89
2023/07/27 06:18:28;;;;;;;12.27;6.35;;;15.90;99.90;;;;;;5000113;28;20056;-89
2023/07/27 06:20:54;;;;;;;9.23;5.95;;;15.90;99.90;;;;;;5016640;28;20029;-89
2023/07/27 06:23:19;;;;;;;9.70;5.90;;;15.90;99.90;;;;;;5033389;28;20053;-92
2023/07/27 06:25:45;;;;;;;10.73;5.75;;;15.90;99.90;;;;;;5017076;28;20075;-91
2023/07/27 06:28:12;;;;;;;8.23;5.10;;;15.90;99.90;;;;;;5017044;28;20505;-91
2023/07/27 06:30:38;;;;;;;8.90;5.20;;;16.00;99.90;;;;;;5032940;28;20052;-91
2023/07/27 06:33:05;;;;;;;8.18;5.03;;;16.00;99.90;;;;;;5016749;28;20053;-92
2023/07/27 06:35:31;;;;;;;8.05;4.97;;;16.00;99.90;;;;;;5033029;28;20453;-92
2023/07/27 06:37:57;;;;;;;8.68;5.30;;;16.00;99.90;;;;;;5016676;28;20063;-91
2023/07/27 06:40:23;;;;;;;6.53;4.75;;;16.00;99.90;;;;;;5002387;28;20029;-89
2023/07/27 06:42:48;;;;;;;8.40;5.05;;;16.00;99.90;;;;;;5020662;28;20120;-88
2023/07/27 06:45:14;;;;;;;6.93;4.88;;;16.10;99.90;;;;;;5004711;28;20026;-88
2023/07/27 06:47:40;;;;;;;8.88;5.18;;;16.10;99.90;;;;;;5004020;28;20382;-88
2023/07/27 06:50:06;;;;;;;7.75;5.00;;;16.10;99.90;;;;;;5019931;28;20036;-89
2023/07/27 06:52:32;;;;;;;6.55;4.65;;;16.10;99.90;;;;;;5036480;28;20056;-89
2023/07/27 06:54:58;;;;;;;8.73;5.18;;;16.20;99.90;;;;;;5037880;28;20355;-92
2023/07/27 06:57:30;;;;;;;9.73;4.70;;;16.20;99.90;;;;;;5021186;28;20025;-92
2023/07/27 06:59:55;;;;;;;7.57;4.78;;;16.20;99.90;;;;;;5037559;28;20021;-91
2023/07/27 07:02:24;;;;;;;6.90;4.82;;;16.20;99.90;;;;;;5030333;28;20063;-91
2023/07/27 07:04:57;;;;;;;8.77;5.55;;;16.20;99.90;;;;;;5061117;28;20017;-90
2023/07/27 07:07:23;;;;;;;8.80;4.68;;;16.20;99.90;;;;;;5078218;28;20098;-91
2023/07/27 07:09:49;;;;;;;8.60;4.65;;;16.20;99.90;;;;;;5027177;28;20055;-90
2023/07/27 07:12:14;;;;;;;6.60;4.43;;;16.30;99.90;;;;;;5027224;28;20500;-89
2023/07/27 07:14:40;;;;;;;6.57;4.20;;;16.30;99.90;;;;;;5026573;28;20104;-89
2023/07/27 07:17:06;;;;;;;5.78;4.15;;;16.40;99.90;;;;;;5027062;28;20016;-89
2023/07/27 07:19:32;;;;;;;5.90;4.25;;;16.40;99.90;;;;;;5042586;28;20017;-89
2023/07/27 07:21:58;;;;;;;5.53;4.03;;;16.40;99.90;;;;;;5026511;28;20035;-89
2023/07/27 07:24:24;;;;;;;5.53;4.00;;;16.40;99.90;;;;;;5043951;28;20025;-89
2023/07/27 07:26:49;;;;;;;5.50;3.75;;;16.50;99.90;;;;;;5027269;28;20123;-94
2023/07/27 07:29:15;;;;;;;6.10;4.10;;;16.50;99.90;;;;;;5027968;28;20452;-93
2023/07/27 07:31:41;;;;;;;7.15;4.97;;;16.50;99.90;;;;;;5027347;28;20438;-92
2023/07/27 07:34:10;;;;;;;7.13;4.30;;;16.50;99.90;;;;;;5043559;28;20052;-94
2023/07/27 07:36:35;;;;;;;6.80;4.47;;;16.60;99.90;;;;;;5026950;28;20070;-93
2023/07/27 07:39:01;;;;;;;8.50;5.05;;;16.60;99.90;;;;;;5027759;28;20036;-92
2023/07/27 07:41:27;;;;;;;6.97;4.80;;;16.60;99.90;;;;;;5061322;28;20056;-92
2023/07/27 07:43:52;;;;;;;7.70;5.22;;;16.70;99.90;;;;;;5030330;28;20182;-91
2023/07/27 07:46:18;;;;;;;8.02;5.50;;;16.70;99.90;;;;;;5027666;28;20033;-93
2023/07/27 07:48:44;;;;;;;7.30;5.28;;;16.70;99.90;;;;;;5027055;28;20040;-93
2023/07/27 07:51:18;;;;;;;8.95;5.43;;;16.70;99.90;;;;;;5043318;28;20032;-92
2023/07/27 07:53:44;;;;;;;8.50;6.00;;;16.80;99.90;;;;;;5044435;28;20107;-94
2023/07/27 07:56:17;;;;;;;6.75;5.55;;;16.80;99.90;;;;;;5060527;28;20055;-91
2023/07/27 07:58:44;;;;;;;8.50;5.78;;;16.80;99.90;;;;;;5060304;28;20021;-91
2023/07/27 08:01:10;;;;;;;8.07;5.55;;;16.80;99.90;;;;;;5042857;28;20049;-92
2023/07/27 08:03:36;;;;;;;6.40;5.00;;;16.90;99.90;;;;;;5025800;28;20123;-89
2023/07/27 08:06:02;;;;;;;6.97;5.35;;;16.90;99.90;;;;;;5065176;28;20445;-89
2023/07/27 08:08:28;;;;;;;7.43;5.10;;;16.90;99.90;;;;;;5061661;28;20035;-90
2023/07/27 08:10:59;;;;;;;8.48;5.25;;;16.90;99.90;;;;;;5061356;28;20036;-89
2023/07/27 08:13:25;;;;;;;7.32;5.07;;;17.00;99.90;;;;;;5078143;28;20029;-89
2023/07/27 08:15:54;;;;;;;7.68;4.85;;;17.00;99.90;;;;;;5029743;28;20021;-89
2023/07/27 08:18:20;;;;;;;7.00;4.72;;;17.00;99.90;;;;;;5059393;28;20040;-91
2023/07/27 08:20:57;;;;;;;8.07;5.60;;;17.10;99.90;;;;;;5059183;28;20123;-91
2023/07/27 08:23:22;;;;;;;6.88;5.40;;;17.10;99.90;;;;;;5042141;28;20041;-91
2023/07/27 08:25:49;;;;;;;6.07;4.97;;;17.20;99.90;;;;;;5041971;28;20071;-90
2023/07/27 08:28:15;;;;;;;6.38;4.82;;;17.20;99.90;;;;;;5041807;28;20534;-89
2023/07/27 08:30:43;;;;;;;6.40;4.90;;;17.20;99.90;;;;;;5025204;28;20037;-88
2023/07/27 08:33:09;;;;;;;7.15;5.38;;;17.20;99.90;;;;;;5057897;28;20062;-88
2023/07/27 08:35:34;;;;;;;6.20;4.90;;;17.20;99.90;;;;;;5041069;28;20032;-88
2023/07/27 08:38:00;;;;;;;5.93;4.97;;;17.20;99.90;;;;;;5024755;28;20037;-88
2023/07/27 08:40:26;;;;;;;8.68;5.65;;;17.30;99.90;;;;;;5024335;28;20039;-88
2023/07/27 08:42:51;;;;;;;8.23;5.85;;;17.30;99.90;;;;;;5040815;28;20121;-88
2023/07/27 08:45:21;;;;;;;7.28;5.78;;;17.30;99.90;;;;;;5024469;28;20493;-90
2023/07/27 08:47:48;;;;;;;7.53;5.15;;;17.30;99.90;;;;;;5041909;28;20041;-89
2023/07/27 08:50:15;;;;;;;7.65;5.90;;;17.40;99.90;;;;;;5058151;28;20159;-89
2023/07/27 08:52:41;;;;;;;7.18;5.68;;;17.40;99.90;;;;;;5041434;28;20021;-93
2023/07/27 08:55:07;;;;;;;7.03;5.78;;;17.40;99.90;;;;;;5058937;28;20449;-92
2023/07/27 08:57:33;;;;;;;7.45;5.57;;;17.40;99.90;;;;;;5025125;28;20066;-93
2023/07/27 08:59:59;;;;;;;8.20;5.72;;;17.50;99.90;;;;;;5041520;28;20029;-94
2023/07/27 09:02:25;;;;;;;7.25;6.40;;;17.50;99.90;;;;;;5025147;28;20078;-93
2023/07/27 09:04:51;;;;;;;8.18;5.60;;;17.50;99.90;;;;;;5024705;28;20029;-94
2023/07/27 09:07:16;;;;;;;7.32;5.78;;;17.50;99.90;;;;;;5025766;28;20115;-93
2023/07/27 09:09:51;;;;;;;7.78;5.75;;;17.50;99.90;;;;;;5025242;28;20021;-90
2023/07/27 09:12:18;;;;;;;6.45;5.38;;;17.60;99.90;;;;;;5041775;28;20063;-90
2023/07/27 09:14:44;;;;;;;6.25;5.25;;;17.60;99.90;;;;;;5058226;28;20025;-90
2023/07/27 09:17:12;;;;;;;9.82;5.70;;;17.60;99.90;;;;;;5041199;28;20027;-90
2023/07/27 09:19:40;;;;;;;8.23;5.53;;;17.70;99.90;;;;;;5057684;28;20028;-91
2023/07/27 09:22:06;;;;;;;7.68;5.10;;;17.70;99.90;;;;;;5057757;28;20024;-90
2023/07/27 09:24:32;;;;;;;8.00;4.90;;;17.70;99.90;;;;;;5041754;28;20102;-91
2023/07/27 09:26:59;;;;;;;8.85;4.80;;;17.70;99.90;;;;;;5058385;28;20108;-94
2023/07/27 09:29:24;;;;;;;7.55;4.93;;;17.70;99.90;;;;;;5041651;28;20067;-94
2023/07/27 09:31:52;;;;;;;6.32;5.10;;;17.70;99.90;;;;;;5025089;28;20798;-94
2023/07/27 09:34:19;;;;;;;8.07;5.93;;;17.70;99.90;;;;;;5058868;28;20029;-94
2023/07/27 09:36:46;;;;;;;10.27;5.72;;;17.70;99.90;;;;;;5040652;28;20052;-92
2023/07/27 09:39:15;;;;;;;9.07;5.78;;;17.80;99.90;;;;;;5040977;28;20466;-91
2023/07/27 09:41:45;;;;;;;9.15;6.03;;;17.80;99.90;;;;;;5057437;28;20542;-88
2023/07/27 09:44:17;;;;;;;9.18;6.30;;;17.80;99.90;;;;;;5056967;28;20067;-89
2023/07/27 09:46:46;;;;;;;10.68;6.57;;;17.80;99.90;;;;;;5056782;28;20536;-89
2023/07/27 09:49:13;;;;;;;8.88;7.38;;;17.80;99.90;;;;;;5024773;28;20024;-89
2023/07/27 09:51:39;;;;;;;9.60;6.88;;;17.80;99.90;;;;;;5040103;28;20021;-89
2023/07/27 09:54:06;;;;;;;8.95;7.80;;;17.80;99.90;;;;;;5040179;28;20040;-89
2023/07/27 09:56:32;;;;;;;10.55;8.32;;;17.90;99.90;;;;;;5056416;28;20023;-88
2023/07/27 09:58:59;;;;;;;10.43;8.38;;;17.90;99.90;;;;;;5023877;28;20032;-91
2023/07/27 10:01:26;;;;;;;11.30;9.07;;;17.90;99.90;;;;;;5040207;28;20052;-91
2023/07/27 10:03:57;;;;;;;9.95;7.93;;;17.90;99.90;;;;;;5056832;28;20056;-92
2023/07/27 10:06:24;;;;;;;11.10;7.28;;;17.90;99.90;;;;;;5025670;28;20036;-91
2023/07/27 10:08:50;;;;;;;9.63;6.80;;;17.90;99.90;;;;;;5056806;28;20415;-91
2023/07/27 10:11:16;;;;;;;8.40;7.28;;;17.90;99.90;;;;;;5056729;28;20033;-91
2023/07/27 10:13:43;;;;;;;13.40;8.57;;;18.00;99.90;;;;;;5040132;28;20056;-91
2023/07/27 10:16:16;;;;;;;12.90;7.93;;;18.00;99.90;;;;;;5061924;28;20469;-94
2023/07/27 10:18:46;;;;;;;11.18;8.93;;;18.00;99.90;;;;;;5063362;28;20032;-92
2023/07/27 10:21:22;;;;;;;14.23;9.67;;;18.10;99.90;;;;;;5063356;28;20099;-92
2023/07/27 10:24:00;;;;;;;11.05;8.27;;;18.10;99.90;;;;;;5046970;28;20031;-94
2023/07/27 10:26:46;;;;;;;10.80;8.20;;;18.10;99.90;;;;;;5063674;28;20109;-93
2023/07/27 10:29:19;;;;;;;9.90;7.75;;;18.10;99.90;;;;;;5047084;28;20055;-92
2023/07/27 10:31:57;;;;;;;10.02;7.65;;;18.10;99.90;;;;;;5066592;28;20104;-90
2023/07/27 10:34:26;;;;;;;9.60;7.32;;;18.10;99.90;;;;;;5071986;28;20004;-90
2023/07/27 10:36:57;;;;;;;10.27;7.80;;;18.10;99.90;;;;;;5086220;28;20088;-88
2023/07/27 10:39:26;;;;;;;10.93;8.35;;;18.10;99.90;;;;;;5062859;28;20377;-93
2023/07/27 10:42:02;;;;;;;10.38;8.88;;;18.10;99.90;;;;;;5063390;28;20020;-93
2023/07/27 10:44:29;;;;;;;9.75;8.35;;;18.10;99.90;;;;;;5063937;28;20036;-94
2023/07/27 10:46:57;;;;;;;11.65;8.80;;;18.20;99.90;;;;;;5063771;28;20028;-93
2023/07/27 10:49:23;;;;;;;9.48;7.78;;;18.20;99.90;;;;;;5063452;28;20385;-93
2023/07/27 10:51:49;;;;;;;10.15;7.65;;;18.30;99.90;;;;;;5029919;28;20025;-93
2023/07/27 10:54:15;;;;;;;8.10;7.10;;;18.30;99.90;;;;;;5063197;28;20403;-94
2023/07/27 10:56:42;;;;;;;8.35;6.72;;;18.30;99.90;;;;;;5046928;28;20028;-93
2023/07/27 10:59:12;;;;;;;8.73;7.22;;;18.30;99.90;;;;;;5063461;28;20061;-92
2023/07/27 11:01:39;;;;;;;9.75;6.55;;;18.30;99.90;;;;;;5062873;28;20044;-94
2023/07/27 11:04:05;;;;;;;9.68;7.72;;;18.30;99.90;;;;;;5063167;28;20024;-90
2023/07/27 11:06:39;;;;;;;9.43;6.93;;;18.30;99.90;;;;;;5063362;28;20106;-93
2023/07/27 11:09:10;;;;;;;10.30;7.85;;;18.30;99.90;;;;;;5047546;28;20024;-93
2023/07/27 11:11:35;;;;;;;9.90;7.97;;;18.40;99.90;;;;;;5063194;28;20170;-93
2023/07/27 11:14:05;;;;;;;10.13;7.47;;;18.40;99.90;;;;;;5030589;28;20478;-94
2023/07/27 11:16:33;;;;;;;12.32;7.15;;;18.40;99.90;;;;;;5062858;28;20094;-92
2023/07/27 11:19:03;;;;;;;7.90;6.30;;;18.40;99.90;;;;;;5046793;28;20021;-94
2023/07/27 11:21:31;;;;;;;10.05;7.22;;;18.40;99.90;;;;;;5063619;28;20029;-91
2023/07/27 11:23:57;;;;;;;7.53;6.28;;;18.40;99.90;;;;;;5062784;28;20031;-91
2023/07/27 11:26:26;;;;;;;7.55;5.78;;;18.50;99.90;;;;;;5027889;28;20032;-91
2023/07/27 11:28:53;;;;;;;6.25;5.65;;;18.50;99.90;;;;;;5047613;28;20017;-91
2023/07/27 11:31:19;;;;;;;8.73;5.97;;;18.50;99.90;;;;;;5067951;28;20040;-90
2023/07/27 11:33:45;;;;;;;7.57;5.82;;;18.50;99.90;;;;;;5068114;28;20012;-91
2023/07/27 11:36:11;;;;;;;8.85;6.40;;;18.50;99.90;;;;;;5051320;28;20024;-90
2023/07/27 11:38:37;;;;;;;7.65;6.05;;;18.50;99.90;;;;;;5046021;28;20024;-88
2023/07/27 11:41:06;;;;;;;7.22;5.38;;;18.60;99.90;;;;;;5058669;28;20024;-88
2023/07/27 11:43:33;;;;;;;7.10;5.78;;;18.50;99.90;;;;;;5075651;28;20021;-88
2023/07/27 11:46:00;;;;;;;6.60;5.90;;;18.60;99.90;;;;;;5042189;28;20039;-88
2023/07/27 11:48:27;;;;;;;7.38;6.07;;;18.60;99.90;;;;;;5041961;28;20016;-88
2023/07/27 11:50:57;;;;;;;7.45;5.90;;;18.60;99.90;;;;;;5042062;28;20417;-88
2023/07/27 11:53:24;;;;;;;9.45;6.60;;;18.60;99.90;;;;;;5042212;28;20456;-88
2023/07/27 11:55:51;;;;;;;7.90;5.93;;;18.60;99.90;;;;;;5042230;28;20385;-89
2023/07/27 11:58:16;;;;;;;8.50;5.78;;;18.70;99.90;;;;;;5059160;28;20103;-90
2023/07/27 12:00:53;;;;;;;7.68;5.97;;;18.70;99.90;;;;;;5042327;28;20119;-88
2023/07/27 12:03:20;;;;;;;8.95;6.10;;;18.70;99.90;;;;;;5058872;28;20051;-90
2023/07/27 12:05:46;;;;;;;7.22;5.65;;;18.80;99.90;;;;;;5058954;28;20040;-90
2023/07/27 12:08:19;;;;;;;7.10;5.82;;;18.80;99.90;;;;;;5042380;28;20120;-90
2023/07/27 12:10:55;;;;;;;6.90;5.60;;;18.80;99.90;;;;;;5041963;28;20118;-90
2023/07/27 12:13:22;;;;;;;7.68;5.60;;;18.80;99.90;;;;;;5058592;28;20388;-89
2023/07/27 12:15:57;;;;;;;7.15;5.97;;;18.80;99.90;;;;;;5058164;28;20023;-89
2023/07/27 12:18:27;;;;;;;7.38;6.32;;;18.90;99.90;;;;;;5058605;28;20028;-89
2023/07/27 12:20:55;;;;;;;7.47;5.97;;;18.80;99.90;;;;;;5041874;28;20028;-88
2023/07/27 12:23:21;;;;;;;10.05;6.03;;;18.80;99.90;;;;;;5041582;28;20058;-89
2023/07/27 12:25:48;;;;;;;8.48;6.22;;;18.80;99.90;;;;;;5058223;28;20103;-88
2023/07/27 12:28:14;;;;;;;8.23;6.07;;;18.90;99.90;;;;;;5025070;28;20174;-92
2023/07/27 12:30:40;;;;;;;9.43;6.10;;;18.90;99.90;;;;;;5059643;28;20029;-88
2023/07/27 12:33:06;;;;;;;6.68;5.85;;;18.90;99.90;;;;;;5061158;28;20078;-88
2023/07/27 12:35:32;;;;;;;8.23;5.80;;;18.90;99.90;;;;;;5082395;28;20028;-88
2023/07/27 12:37:59;;;;;;;7.47;5.57;;;18.90;99.90;;;;;;5068393;28;20086;-89
2023/07/27 12:40:25;;;;;;;7.68;6.50;;;19.00;99.90;;;;;;5047423;28;20066;-89
2023/07/27 12:42:51;;;;;;;6.88;6.13;;;19.00;99.90;;;;;;5062106;28;20032;-91